createdAt,value
2023-03-06T00:02:21.749Z,99916.69
2023-03-06T00:04:48.360Z,99930.78
2023-03-06T00:07:15.054Z,99918.44
2023-03-06T00:09:41.709Z,99921.09
2023-03-06T00:12:08.834Z,99921.97
2023-03-06T00:14:35.588Z,99912.25
2023-03-06T00:17:02.296Z,99917.53
2023-03-06T00:19:31.532Z,99911.38
2023-03-06T00:21:58.273Z,99912.25
2023-03-06T00:24:24.952Z,99907.78
2023-03-06T00:26:51.520Z,99911.28
2023-03-06T00:29:18.091Z,99906.94
2023-03-06T00:31:50.089Z,99908.66
2023-03-06T00:34:19.499Z,99899.00
2023-03-06T00:36:46.120Z,99900.69
2023-03-06T00:39:12.886Z,99897.19
2023-03-06T00:41:39.489Z,99894.53
2023-03-06T00:44:06.877Z,99897.19
2023-03-06T00:46:33.493Z,99893.69
2023-03-06T00:49:00.162Z,99892.84
2023-03-06T00:51:26.910Z,99897.25
2023-03-06T00:53:53.536Z,99888.41
2023-03-06T00:56:20.163Z,99895.50
2023-03-06T00:58:49.144Z,99891.09
2023-03-06T01:01:15.870Z,99886.75
2023-03-06T01:03:42.524Z,99883.16
2023-03-06T01:06:09.127Z,99884.00
2023-03-06T01:08:35.784Z,99884.00
2023-03-06T01:11:02.405Z,99886.66
2023-03-06T01:13:29.068Z,99883.16
2023-03-06T01:15:55.747Z,99877.00
2023-03-06T01:18:22.343Z,99871.66
2023-03-06T01:20:51.349Z,99868.12
2023-03-06T01:23:17.977Z,99864.63
2023-03-06T01:25:44.577Z,99859.31
2023-03-06T01:28:11.305Z,99867.25
2023-03-06T01:30:37.921Z,99863.75
2023-03-06T01:33:04.507Z,99858.47
2023-03-06T01:35:31.143Z,99862.91
2023-03-06T01:37:57.735Z,99861.13
2023-03-06T01:40:24.340Z,99854.13
2023-03-06T01:42:51.196Z,99854.97
2023-03-06T01:45:17.663Z,99854.13
2023-03-06T01:47:45.230Z,99849.66
2023-03-06T01:50:11.843Z,99846.06
2023-03-06T01:52:41.805Z,99851.47
2023-03-06T01:55:10.198Z,99851.47
2023-03-06T01:57:41.102Z,99853.25
2023-03-06T02:00:12.149Z,99851.47
2023-03-06T02:02:39.181Z,99852.41
2023-03-06T02:05:06.236Z,99854.13
2023-03-06T02:07:33.074Z,99850.53
2023-03-06T02:09:59.656Z,99854.03
2023-03-06T02:12:26.288Z,99853.16
2023-03-06T02:14:52.990Z,99839.06
2023-03-06T02:17:20.250Z,99849.66
2023-03-06T02:20:13.011Z,99849.66
2023-03-06T02:23:17.228Z,99856.75
2023-03-06T02:25:45.591Z,99845.22
2023-03-06T02:28:13.936Z,99849.66
2023-03-06T02:30:40.837Z,99845.22
2023-03-06T02:33:07.515Z,99847.03
2023-03-06T02:35:35.539Z,99838.22
2023-03-06T02:38:05.397Z,99843.53
2023-03-06T02:40:32.074Z,99834.63
2023-03-06T02:42:58.829Z,99837.28
2023-03-06T02:45:48.120Z,99837.28
2023-03-06T02:48:15.336Z,99842.66
2023-03-06T02:50:42.106Z,99842.66
2023-03-06T02:53:09.228Z,99849.66
2023-03-06T02:55:36.163Z,99843.53
2023-03-06T02:58:02.961Z,99840.03
2023-03-06T03:00:29.770Z,99842.75
2023-03-06T03:02:56.485Z,99846.41
2023-03-06T03:05:23.179Z,99846.66
2023-03-06T03:07:49.805Z,99844.25
2023-03-06T03:10:16.576Z,99848.94
2023-03-06T03:12:43.189Z,99846.59
2023-03-06T03:15:10.212Z,99849.50
2023-03-06T03:17:37.599Z,99841.78
2023-03-06T03:20:05.400Z,99843.81
2023-03-06T03:22:31.980Z,99846.75
2023-03-06T03:24:58.548Z,99839.13
2023-03-06T03:27:25.171Z,99846.38
2023-03-06T03:29:51.805Z,99831.56
2023-03-06T03:32:18.473Z,99833.41
2023-03-06T03:34:45.112Z,99830.06
2023-03-06T03:37:11.736Z,99824.09
2023-03-06T03:39:38.325Z,99833.13
2023-03-06T03:42:05.179Z,99830.69
2023-03-06T03:44:31.776Z,99821.97
2023-03-06T03:46:58.571Z,99831.00
2023-03-06T03:49:25.172Z,99824.16
2023-03-06T03:51:51.806Z,99831.38
2023-03-06T03:54:18.400Z,99822.66
2023-03-06T03:56:45.276Z,99822.66
2023-03-06T03:59:12.018Z,99818.25
2023-03-06T04:01:39.776Z,99830.59
2023-03-06T04:04:06.477Z,99820.72
2023-03-06T04:06:33.131Z,99826.50
2023-03-06T04:08:59.734Z,99823.38
2023-03-06T04:11:26.338Z,99828.22
2023-03-06T04:13:52.962Z,99828.50
2023-03-06T04:16:19.749Z,99817.87
2023-03-06T04:18:46.441Z,99821.09
2023-03-06T04:21:13.366Z,99819.03
2023-03-06T04:23:40.038Z,99819.84
2023-03-06T04:26:06.630Z,99832.28
2023-03-06T04:28:33.336Z,99825.59
2023-03-06T04:30:59.972Z,99826.81
2023-03-06T04:33:26.599Z,99825.59
2023-03-06T04:35:53.255Z,99824.50
2023-03-06T04:38:19.882Z,99818.13
2023-03-06T04:40:46.588Z,99812.75
2023-03-06T04:43:13.401Z,99817.87
2023-03-06T04:45:41.402Z,99823.03
2023-03-06T04:48:08.278Z,99817.53
2023-03-06T04:50:35.118Z,99815.75
2023-03-06T04:53:01.898Z,99822.75
2023-03-06T04:55:31.479Z,99818.31
2023-03-06T04:57:58.988Z,99809.50
2023-03-06T05:00:31.518Z,99814.03
2023-03-06T05:03:01.681Z,99808.91
2023-03-06T05:05:28.810Z,99810.78
2023-03-06T05:07:55.704Z,99810.09
2023-03-06T05:10:22.456Z,99807.72
2023-03-06T05:12:49.086Z,99813.28
2023-03-06T05:15:15.938Z,99814.41
2023-03-06T05:17:42.751Z,99812.06
2023-03-06T05:20:10.345Z,99814.22
2023-03-06T05:22:36.967Z,99813.62
2023-03-06T05:25:04.942Z,99809.44
2023-03-06T05:27:31.625Z,99824.72
2023-03-06T05:29:58.253Z,99813.53
2023-03-06T05:32:24.864Z,99814.53
2023-03-06T05:34:51.804Z,99817.44
2023-03-06T05:37:18.572Z,99815.00
2023-03-06T05:39:48.006Z,99816.91
2023-03-06T05:42:14.608Z,99818.00
2023-03-06T05:44:41.813Z,99811.09
2023-03-06T05:47:09.087Z,99814.75
2023-03-06T05:49:35.915Z,99820.13
2023-03-06T05:52:04.126Z,99827.13
2023-03-06T05:54:34.139Z,99824.56
2023-03-06T05:57:00.973Z,99828.84
2023-03-06T05:59:28.617Z,99827.91
2023-03-06T06:01:55.731Z,99825.72
2023-03-06T06:04:23.063Z,99824.97
2023-03-06T06:06:57.109Z,99832.25
2023-03-06T06:09:24.265Z,99835.81
2023-03-06T06:11:55.149Z,99828.66
2023-03-06T06:14:21.968Z,99832.56
2023-03-06T06:16:48.754Z,99838.59
2023-03-06T06:19:20.853Z,99836.31
2023-03-06T06:21:51.807Z,99842.00
2023-03-06T06:24:19.637Z,99843.97
2023-03-06T06:26:46.245Z,99841.34
2023-03-06T06:29:13.073Z,99845.97
2023-03-06T06:31:39.746Z,99848.81
2023-03-06T06:34:06.490Z,99850.00
2023-03-06T06:36:33.207Z,99847.56
2023-03-06T06:38:59.794Z,99854.47
2023-03-06T06:41:46.055Z,99859.94
2023-03-06T06:44:15.453Z,99856.72
2023-03-06T06:49:31.634Z,99858.66
2023-03-06T06:51:58.418Z,99849.34
2023-03-06T06:54:25.248Z,99852.28
2023-03-06T06:56:51.926Z,99849.91
2023-03-06T06:59:18.588Z,99847.81
2023-03-06T07:01:45.262Z,99848.44
2023-03-06T07:04:13.576Z,99841.28
2023-03-06T07:06:40.652Z,99851.94
2023-03-06T07:09:07.416Z,99849.44
2023-03-06T07:11:34.009Z,99848.63
2023-03-06T07:14:01.831Z,99852.06
2023-03-06T07:16:28.473Z,99851.22
2023-03-06T07:18:55.274Z,99851.34
2023-03-06T07:21:22.760Z,99855.03
2023-03-06T07:23:49.516Z,99849.00
2023-03-06T07:26:16.258Z,99861.19
2023-03-06T07:28:51.920Z,99857.47
2023-03-06T07:31:21.415Z,99859.69
2023-03-06T07:33:49.277Z,99859.97
2023-03-06T07:36:16.085Z,99866.72
2023-03-06T07:38:42.802Z,99863.28
2023-03-06T07:41:13.554Z,99861.94
2023-03-06T07:43:43.572Z,99861.50
2023-03-06T07:46:12.784Z,99868.34
2023-03-06T07:48:39.859Z,99858.59
2023-03-06T07:51:08.676Z,99851.50
2023-03-06T07:53:35.558Z,99864.75
2023-03-06T07:56:08.556Z,99863.75
2023-03-06T07:58:36.508Z,99869.88
2023-03-06T08:01:24.156Z,99877.75
2023-03-06T08:03:50.835Z,99874.25
2023-03-06T08:06:19.445Z,99877.16
2023-03-06T08:08:46.570Z,99876.44
2023-03-06T08:11:14.116Z,99879.09
2023-03-06T08:13:40.790Z,99887.25
2023-03-06T08:16:07.920Z,99879.63
2023-03-06T08:18:34.549Z,99879.94
2023-03-06T08:21:20.855Z,99879.28
2023-03-06T08:23:47.639Z,99877.75
2023-03-06T08:26:16.158Z,99870.84
2023-03-06T08:28:42.850Z,99873.72
2023-03-06T08:31:18.463Z,99870.53
2023-03-06T08:33:45.072Z,99871.56
2023-03-06T08:36:11.688Z,99877.94
2023-03-06T08:38:38.300Z,99880.69
2023-03-06T08:41:05.030Z,99868.53
2023-03-06T08:43:31.663Z,99869.63
2023-03-06T08:45:58.618Z,99873.13
2023-03-06T08:48:25.278Z,99875.06
2023-03-06T08:50:51.870Z,99876.09
2023-03-06T08:53:18.628Z,99877.09
2023-03-06T08:55:45.395Z,99873.78
2023-03-06T08:58:12.008Z,99877.44
2023-03-06T09:00:38.690Z,99874.94
2023-03-06T09:03:05.721Z,99866.09
2023-03-06T09:05:32.370Z,99875.03
2023-03-06T09:07:59.070Z,99877.66
2023-03-06T09:10:25.837Z,99865.38
2023-03-06T09:12:54.775Z,99855.56
2023-03-06T09:15:22.267Z,99855.63
2023-03-06T09:17:48.884Z,99856.63
2023-03-06T09:20:15.552Z,99845.28
2023-03-06T09:22:42.512Z,99847.06
2023-03-06T09:25:10.074Z,99848.87
2023-03-06T09:27:36.692Z,99853.31
2023-03-06T09:30:03.733Z,99848.94
2023-03-06T09:32:30.372Z,99842.72
2023-03-06T09:34:57.038Z,99843.72
2023-03-06T09:37:23.821Z,99831.19
2023-03-06T09:39:50.415Z,99824.88
2023-03-06T09:42:18.875Z,99820.19
2023-03-06T09:44:50.490Z,99819.09
2023-03-06T09:47:37.056Z,99824.25
2023-03-06T09:50:31.531Z,99827.50
2023-03-06T09:53:02.724Z,99819.31
2023-03-06T09:55:35.885Z,99830.00
2023-03-06T09:58:22.070Z,99825.63
2023-03-06T10:00:51.706Z,99823.16
2023-03-06T10:03:41.468Z,99830.31
2023-03-06T10:06:28.041Z,99821.59
2023-03-06T10:09:00.649Z,99826.28
2023-03-06T10:11:49.409Z,99828.94
2023-03-06T10:14:27.925Z,99825.47
2023-03-06T10:16:54.980Z,99816.78
2023-03-06T10:19:21.706Z,99822.22
2023-03-06T10:22:00.431Z,99820.69
2023-03-06T10:24:46.000Z,99818.28
2023-03-06T10:27:31.624Z,99807.84
2023-03-06T10:30:22.497Z,99823.03
2023-03-06T10:33:04.853Z,99823.19
2023-03-06T10:35:32.743Z,99817.19
2023-03-06T10:38:13.231Z,99819.75
2023-03-06T10:41:10.975Z,99807.69
2023-03-06T10:43:41.887Z,99798.09
2023-03-06T10:46:10.603Z,99801.53
2023-03-06T10:48:39.377Z,99788.34
2023-03-06T10:51:21.024Z,99789.22
2023-03-06T10:54:01.649Z,99788.56
2023-03-06T10:56:35.826Z,99771.66
2023-03-06T10:59:17.128Z,99765.97
2023-03-06T11:01:50.752Z,99761.81
2023-03-06T11:04:30.520Z,99764.59
2023-03-06T11:07:07.127Z,99755.06
2023-03-06T11:09:33.866Z,99745.72
2023-03-06T11:12:30.345Z,99748.94
2023-03-06T11:15:21.008Z,99736.13
2023-03-06T11:17:57.621Z,99721.44
2023-03-06T11:20:25.532Z,99717.56
2023-03-06T11:22:55.065Z,99714.81
2023-03-06T11:25:23.092Z,99705.69
2023-03-06T11:27:56.937Z,99705.50
2023-03-06T11:30:39.769Z,99702.56
2023-03-06T11:33:22.437Z,99700.66
2023-03-06T11:35:56.458Z,99694.41
2023-03-06T11:38:34.024Z,99681.87
2023-03-06T11:41:02.473Z,99680.37
2023-03-06T11:43:52.902Z,99674.22
2023-03-06T11:46:28.434Z,99663.72
2023-03-06T11:49:00.045Z,99654.91
2023-03-06T11:51:30.760Z,99644.00
2023-03-06T11:53:58.836Z,99648.06
2023-03-06T11:56:48.397Z,99638.19
2023-03-06T11:59:33.877Z,99643.19
2023-03-06T12:02:29.456Z,99635.06
2023-03-06T12:05:01.476Z,99623.38
2023-03-06T12:07:36.005Z,99616.06
2023-03-06T12:10:23.410Z,99617.59
2023-03-06T12:13:02.404Z,99606.78
2023-03-06T12:15:44.145Z,99602.19
2023-03-06T12:18:13.645Z,99599.38
2023-03-06T12:20:43.907Z,99601.62
2023-03-06T12:23:18.795Z,99604.09
2023-03-06T12:26:00.790Z,99601.16
2023-03-06T12:28:32.075Z,99598.38
2023-03-06T12:31:19.574Z,99593.62
2023-03-06T12:34:04.681Z,99601.19
2023-03-06T12:37:04.745Z,99598.22
2023-03-06T12:39:43.545Z,99590.16
2023-03-06T12:42:39.401Z,99581.00
2023-03-06T12:45:32.315Z,99593.25
2023-03-06T12:47:59.120Z,99585.19
2023-03-06T12:50:28.041Z,99585.09
2023-03-06T12:52:56.060Z,99584.03
2023-03-06T12:55:25.726Z,99578.50
2023-03-06T12:57:52.758Z,99582.97
2023-03-06T13:00:44.821Z,99583.81
2023-03-06T13:03:51.985Z,99575.09
2023-03-06T13:06:32.413Z,99575.31
2023-03-06T13:09:31.290Z,99575.00
2023-03-06T13:12:24.962Z,99580.00
2023-03-06T13:14:54.837Z,99572.13
2023-03-06T13:17:24.518Z,99576.03
2023-03-06T13:20:16.404Z,99569.16
2023-03-06T13:22:46.732Z,99565.84
2023-03-06T13:25:22.494Z,99558.28
2023-03-06T13:27:54.726Z,99561.44
2023-03-06T13:30:21.313Z,99559.50
2023-03-06T13:32:49.044Z,99552.19
2023-03-06T13:35:32.235Z,99551.91
2023-03-06T13:37:59.527Z,99556.25
2023-03-06T13:40:29.250Z,99549.91
2023-03-06T13:43:07.650Z,99537.31
2023-03-06T13:45:38.774Z,99537.06
2023-03-06T13:48:30.243Z,99531.47
2023-03-06T13:50:53.583Z,99532.81
2023-03-06T13:53:27.399Z,99537.47
2023-03-06T13:56:29.289Z,99537.28
2023-03-06T13:59:22.896Z,99529.97
2023-03-06T14:02:00.514Z,99526.84
2023-03-06T14:04:34.516Z,99520.28
2023-03-06T14:07:21.281Z,99520.66
2023-03-06T14:09:48.633Z,99517.59
2023-03-06T14:12:34.946Z,99517.66
2023-03-06T14:15:24.410Z,99515.69
2023-03-06T14:18:15.769Z,99512.28
2023-03-06T14:20:44.129Z,99508.91
2023-03-06T14:23:30.921Z,99507.63
2023-03-06T14:26:15.400Z,99509.97
2023-03-06T14:28:43.591Z,99509.78
2023-03-06T14:31:18.184Z,99507.13
2023-03-06T14:33:50.644Z,99508.94
2023-03-06T14:36:19.896Z,99510.75
2023-03-06T14:39:13.620Z,99509.78
2023-03-06T14:41:40.626Z,99506.28
2023-03-06T14:44:18.039Z,99500.00
2023-03-06T14:46:51.815Z,99506.28
2023-03-06T14:49:19.810Z,99507.13
2023-03-06T14:51:54.647Z,99496.50
2023-03-06T14:54:50.549Z,99499.16
2023-03-06T14:57:18.433Z,99500.75
2023-03-06T14:59:56.412Z,99490.13
2023-03-06T15:02:25.375Z,99496.94
2023-03-06T15:05:19.264Z,99490.75
2023-03-06T15:07:45.897Z,99491.63
2023-03-06T15:10:29.196Z,99484.41
2023-03-06T15:12:55.895Z,99481.75
2023-03-06T15:15:27.892Z,99486.09
2023-03-06T15:17:54.634Z,99483.44
2023-03-06T15:20:41.431Z,99483.25
2023-03-06T15:23:34.195Z,99477.16
2023-03-06T15:26:01.991Z,99485.97
2023-03-06T15:28:31.076Z,99475.34
2023-03-06T15:31:20.977Z,99473.47
2023-03-06T15:34:02.667Z,99473.34
2023-03-06T15:36:42.127Z,99474.50
2023-03-06T15:39:27.396Z,99477.28
2023-03-06T15:42:01.838Z,99471.00
2023-03-06T15:44:30.823Z,99480.66
2023-03-06T15:47:06.628Z,99468.16
2023-03-06T15:49:37.041Z,99467.91
2023-03-06T15:52:03.817Z,99477.59
2023-03-06T15:54:32.859Z,99480.34
2023-03-06T15:56:59.597Z,99478.78
2023-03-06T15:59:27.499Z,99475.34
2023-03-06T16:01:54.137Z,99484.09
2023-03-06T16:04:20.835Z,99486.75
2023-03-06T16:06:47.478Z,99480.78
2023-03-06T16:09:14.137Z,99482.66
2023-03-06T16:11:44.753Z,99487.25
2023-03-06T16:14:18.926Z,99479.28
2023-03-06T16:16:45.649Z,99496.06
2023-03-06T16:19:27.104Z,99489.81
2023-03-06T16:21:55.120Z,99489.81
2023-03-06T16:24:21.972Z,99501.19
2023-03-06T16:26:51.787Z,99492.25
2023-03-06T16:29:18.803Z,99489.41
2023-03-06T16:31:45.852Z,99486.75
2023-03-06T16:34:12.547Z,99490.25
2023-03-06T16:36:39.191Z,99500.03
2023-03-06T16:39:05.950Z,99501.84
2023-03-06T16:41:32.573Z,99498.44
2023-03-06T16:43:59.168Z,99505.66
2023-03-06T16:46:25.900Z,99510.97
2023-03-06T16:48:52.852Z,99508.84
2023-03-06T16:51:22.826Z,99505.03
2023-03-06T16:53:50.844Z,99508.13
2023-03-06T16:56:18.513Z,99502.69
2023-03-06T16:58:45.358Z,99506.19
2023-03-06T17:01:15.318Z,99506.44
2023-03-06T17:03:41.989Z,99510.25
2023-03-06T17:06:18.808Z,99513.53
2023-03-06T17:08:45.599Z,99506.06
2023-03-06T17:11:12.750Z,99502.31
2023-03-06T17:13:39.571Z,99500.28
2023-03-06T17:16:07.384Z,99500.88
2023-03-06T17:18:34.132Z,99510.38
2023-03-06T17:21:00.948Z,99518.88
2023-03-06T17:23:28.767Z,99514.91
2023-03-06T17:26:15.474Z,99516.91
2023-03-06T17:28:42.100Z,99503.63
2023-03-06T17:31:21.554Z,99509.69
2023-03-06T17:33:48.461Z,99505.91
2023-03-06T17:36:15.427Z,99509.09
2023-03-06T17:38:42.424Z,99498.19
2023-03-06T17:41:09.369Z,99492.56
2023-03-06T17:43:36.206Z,99498.22
2023-03-06T17:46:07.602Z,99491.69
2023-03-06T17:48:34.425Z,99494.50
2023-03-06T17:51:01.072Z,99492.25
2023-03-06T17:53:27.822Z,99490.13
2023-03-06T17:55:55.321Z,99496.94
2023-03-06T17:58:21.938Z,99498.53
2023-03-06T18:00:48.666Z,99492.16
2023-03-06T18:03:15.397Z,99498.22
2023-03-06T18:05:42.166Z,99501.62
2023-03-06T18:08:10.269Z,99501.53
2023-03-06T18:10:40.730Z,99499.63
2023-03-06T18:13:08.054Z,99509.19
2023-03-06T18:15:38.509Z,99508.34
2023-03-06T18:18:05.200Z,99501.97
2023-03-06T18:20:32.811Z,99501.00
2023-03-06T18:23:03.770Z,99499.00
2023-03-06T18:25:31.540Z,99506.97
2023-03-06T18:27:58.290Z,99502.38
2023-03-06T18:30:25.248Z,99506.75
2023-03-06T18:32:52.694Z,99503.91
2023-03-06T18:35:19.319Z,99506.34
2023-03-06T18:37:45.916Z,99504.44
2023-03-06T18:40:13.156Z,99501.59
2023-03-06T18:42:39.781Z,99504.13
2023-03-06T18:45:07.104Z,99502.12
2023-03-06T18:47:33.778Z,99516.16
2023-03-06T18:50:00.358Z,99507.97
2023-03-06T18:52:27.017Z,99505.31
2023-03-06T18:54:53.597Z,99506.03
2023-03-06T18:57:20.334Z,99505.91
2023-03-06T18:59:47.904Z,99498.69
2023-03-06T19:02:14.509Z,99503.03
2023-03-06T19:04:41.096Z,99509.12
2023-03-06T19:07:12.621Z,99493.25
2023-03-06T19:09:39.417Z,99494.94
2023-03-06T19:12:09.144Z,99494.00
2023-03-06T19:14:36.499Z,99500.19
2023-03-06T19:17:03.267Z,99509.00
2023-03-06T19:19:29.910Z,99484.94
2023-03-06T19:21:59.533Z,99482.28
2023-03-06T19:24:26.566Z,99495.59
2023-03-06T19:26:53.208Z,99490.37
2023-03-06T19:29:19.829Z,99499.09
2023-03-06T19:31:46.521Z,99499.09
2023-03-06T19:34:13.161Z,99510.59
2023-03-06T19:36:42.495Z,99497.19
2023-03-06T19:39:09.550Z,99494.53
2023-03-06T19:41:36.547Z,99483.03
2023-03-06T19:44:03.452Z,99479.41
2023-03-06T19:46:32.208Z,99487.41
2023-03-06T19:49:00.292Z,99485.59
2023-03-06T19:51:27.014Z,99488.25
2023-03-06T19:53:53.625Z,99499.63
2023-03-06T19:56:22.002Z,99504.09
2023-03-06T19:58:48.670Z,99487.28
2023-03-06T20:01:17.220Z,99479.50
2023-03-06T20:03:44.002Z,99468.56
2023-03-06T20:06:15.521Z,99472.84
2023-03-06T20:08:42.828Z,99474.44
2023-03-06T20:11:29.937Z,99465.47
2023-03-06T20:14:00.824Z,99481.22
2023-03-06T20:16:30.741Z,99475.81
2023-03-06T20:18:58.836Z,99467.59
2023-03-06T20:21:26.329Z,99469.06
2023-03-06T20:23:54.106Z,99481.06
2023-03-06T20:26:20.696Z,99476.16
2023-03-06T20:28:47.380Z,99471.28
2023-03-06T20:31:21.525Z,99470.72
2023-03-06T20:33:49.987Z,99479.75
2023-03-06T20:36:24.018Z,99479.06
2023-03-06T20:38:50.680Z,99486.19
2023-03-06T20:41:18.425Z,99485.53
2023-03-06T20:43:45.111Z,99489.06
2023-03-06T20:46:12.414Z,99495.28
2023-03-06T20:48:39.737Z,99491.78
2023-03-06T20:51:08.232Z,99497.94
2023-03-06T20:53:37.715Z,99497.09
2023-03-06T20:56:05.025Z,99502.41
2023-03-06T20:58:31.842Z,99500.72
2023-03-06T21:00:59.535Z,99493.72
2023-03-06T21:03:27.567Z,99492.88
2023-03-06T21:05:54.169Z,99487.62
2023-03-06T21:08:20.811Z,99489.44
2023-03-06T21:10:47.718Z,99487.75
2023-03-06T21:13:14.492Z,99479.78
2023-03-06T21:15:44.359Z,99486.03
2023-03-06T21:18:11.125Z,99481.69
2023-03-06T21:20:38.821Z,99483.37
2023-03-06T21:23:05.620Z,99498.47
2023-03-06T21:25:32.497Z,99488.78
2023-03-06T21:28:00.207Z,99494.97
2023-03-06T21:30:27.873Z,99491.44
2023-03-06T21:32:54.623Z,99489.75
2023-03-06T21:35:23.119Z,99499.50
2023-03-06T21:37:49.757Z,99500.47
2023-03-06T21:40:16.382Z,99496.13
2023-03-06T21:42:45.347Z,99490.81
2023-03-06T21:45:12.139Z,99487.31
2023-03-06T21:47:40.790Z,99483.81
2023-03-06T21:50:10.913Z,99485.56
2023-03-06T21:52:37.529Z,99499.72
2023-03-06T21:55:04.479Z,99485.69
2023-03-06T21:57:31.182Z,99492.69
2023-03-06T21:59:57.858Z,99494.50
2023-03-06T22:02:24.511Z,99485.69
2023-03-06T22:04:52.573Z,99483.03
2023-03-06T22:07:19.942Z,99483.16
2023-03-06T22:09:46.668Z,99491.13
2023-03-06T22:12:13.349Z,99489.41
2023-03-06T22:14:40.019Z,99494.72
2023-03-06T22:17:06.652Z,99485.03
2023-03-06T22:19:33.338Z,99485.88
2023-03-06T22:22:02.284Z,99485.03
2023-03-06T22:24:28.952Z,99478.03
2023-03-06T22:26:55.528Z,99494.81
2023-03-06T22:29:22.173Z,99485.13
2023-03-06T22:31:48.808Z,99482.47
2023-03-06T22:34:15.522Z,99477.19
2023-03-06T22:36:42.181Z,99483.44
2023-03-06T22:39:11.486Z,99476.31
2023-03-06T22:41:38.145Z,99470.25
2023-03-06T22:44:04.942Z,99480.03
2023-03-06T22:46:32.074Z,99487.12
2023-03-06T22:48:59.430Z,99479.09
2023-03-06T22:51:26.804Z,99480.88
2023-03-06T22:53:55.937Z,99482.66
2023-03-06T22:56:22.722Z,99489.78
2023-03-06T22:58:49.556Z,99487.12
2023-03-06T23:01:16.155Z,99477.47
2023-03-06T23:03:44.558Z,99491.72
2023-03-06T23:06:18.879Z,99494.34
2023-03-06T23:08:48.916Z,99491.72
2023-03-06T23:11:16.153Z,99493.50
2023-03-06T23:13:42.812Z,99484.69
2023-03-06T23:16:09.539Z,99487.34
2023-03-06T23:18:36.943Z,99485.53
2023-03-06T23:21:11.411Z,99483.84
2023-03-06T23:23:38.105Z,99482.91
2023-03-06T23:26:05.738Z,99484.69
2023-03-06T23:28:32.400Z,99485.63
2023-03-06T23:30:59.443Z,99489.16
2023-03-06T23:33:26.156Z,99485.63
2023-03-06T23:35:52.889Z,99482.13
2023-03-06T23:38:19.480Z,99484.78
2023-03-06T23:40:46.142Z,99486.59
2023-03-06T23:43:12.746Z,99486.59
2023-03-06T23:45:39.354Z,99481.38
2023-03-06T23:48:07.905Z,99489.25
2023-03-06T23:50:34.501Z,99489.25
2023-03-06T23:53:01.131Z,99489.25
2023-03-06T23:55:27.744Z,99489.34
2023-03-06T23:57:54.411Z,99487.66
